Aviation Digital Data Service (ADDS)

Output produced by METARs form (0323 UTC 21 September 2017)
found at http://www.aviationweather.gov/adds/metars/
 
TAF SABE 202330Z 2100/2124 18015G25KT 9999 OVC015 TX16/2100Z TN13/2110Z 
     BECMG 2104/2107 16010KT 6000 RA BKN010 OVC040 
     PROB30 
     TEMPO 2106/2112 5000 -TSRA FEW050CB 
     BECMG 2119/2122 8000 DZ BKN006 OVC008
       
TAF SACO 202300Z 2100/2124 18015G30KT 9999 BKN030 TX16/2118Z TN08/2110Z 
     BECMG 2102/2104 18015KT 5000 RA VCTS BKN020 FEW040CB 
     BECMG 2112/2115 18010KT 9999 BKN030
       
TAF SAAR 202330Z 2100/2124 16020G30KT CAVOK TX25/2100Z TN10/2110Z 
     BECMG 2105/2107 18015KT 6000 RA BKN010 OVC040 
     TEMPO 2108/2112 5000 TSRA FEW035CB 
     BECMG 2116/2118 16010KT 7000 DZ OVC008 
       
TAF SABE 202330Z 2100/2124 18015G25KT 9999 OVC015 TX16/2100Z TN13/2110Z 
     BECMG 2104/2107 16010KT 6000 RA BKN010 OVC040 
     PROB30 
     TEMPO 2106/2112 5000 -TSRA FEW050CB 
     BECMG 2119/2122 8000 DZ BKN006 OVC008
       
TAF SACO 202300Z 2100/2124 18015G30KT 9999 BKN030 TX16/2118Z TN08/2110Z 
     BECMG 2102/2104 18015KT 5000 RA VCTS BKN020 FEW040CB 
     BECMG 2112/2115 18010KT 9999 BKN030
       
TAF SADF 202330Z 2100/2124 18015G25KT 9999 OVC015 TX16/2100Z TN13/2110Z 
     BECMG 2104/2107 16010KT 6000 RA BKN010 OVC040 
     PROB30 
     TEMPO 2106/2112 5000 -TSRA FEW050CB 
     BECMG 2119/2122 8000 DZ BKN006 OVC008 
       
TAF SAEZ 202330Z 2100/2124 18015G25KT 7000 OVC010 TX13/2118Z TN11/2109Z 
     BECMG 2104/2107 16010KT 6000 RA BKN010 OVC025 
     PROB30 
     TEMPO 2106/2112 5000 -TSRA BKN020 OVC035 FEW050CB 
     BECMG 2114/2117 13010KT 8000 -RA BKN030 BKN050
       
TAF SAME 202300Z 2100/2124 14005KT 9999 SCT045 TX20/2120Z TN10/2110Z
       
TAF SANR 202300Z 2100/2124 14015G25KT 7000 DU BKN040 TX23/2118Z TN14/2110Z 
     BECMG 2106/2109 18015KT 9999 BKN030
       
TAF SANT 202300Z 2100/2124 18015KT 5000 FU DU BKN030 TX21/2118Z TN15/2110Z
       
TAF SARE 202300Z 2100/2124 09005KT 5000 FU NSC TX27/2118Z TN20/2110Z 
     BECMG 2109/2110 20010KT 9999 BKN020
       
TAF SARF 202300Z 2100/2124 09010KT 4000 FU NSC TX38/2118Z TN22/2110Z 
     BECMG 2108/2110 02010KT CAVOK
       
TAF SARI 202300Z 2100/2124 05005KT CAVOK TX34/2118Z TN18/2110Z 
     BECMG 2112/2113 36010KT
       
TAF SARP 202300Z 2100/2124 07010KT CAVOK TX35/2118Z TN20/2110Z 
     BECMG 2112/2113 36010KT
       
TAF SASA 202300Z 2100/2124 02005KT CAVOK TX22/2118Z TN14/2110Z 
     BECMG 2109/2111 09010KT 8000 BKN040
       
TAF SASJ 202300Z 2100/2124 05010G20KT CAVOK TX25/2118Z TN16/2112Z 
     BECMG 2110/2112 16015G25KT 5000 DU BKN040
       
TAF SAVC 202300Z 2100/2124 29015KT CAVOK TX16/2119Z TN08/2112Z 
     BECMG 2103/2106 29025G38KT
       
TAF SAWE 202300Z 2100/2124 32015KT 8000 RA SCT014 OVC050 TX08/2119Z TN05/2112Z 
     BECMG 2104/2106 29020G30 9999 -RA SCT020 SCT070
       
TAF SAWG 202300Z 2100/2124 34015KT 9999 VCSH SCT035 BKN090 
     BECMG 2103/2106 29020G30KT
       
TAF SAWH 202300Z 2100/2124 36015KT 9999 VCSH SCT030 OVC100 TX06/2119Z TN02/2112Z 
     BECMG 2102/2105 25020G30KT -RA BKN025 OVC050 
     BECMG 2106/2108 30015KT NSW BKN030
       
TAF SAZM 202300Z 2100/2124 21010KT 5000 RA SCT003 BKN035 TX15/2118Z TN07/2110Z 
     BECMG 2102/2105 9999 FEW006 SCT010 BKN045 
     BECMG 2105/2107 19010KT SCT040 
     BECMG 2111/2113 18005KT CAVOK
       
TAF SAZN 202300Z 2100/2124 23010KT CAVOK TX21/2118Z TN05/2110Z 
     BECMG 2106/2108 27010KT 
     BECMG 2115/2117 34005KT
       
TAF SAZS 202300Z 2100/2124 30015KT 9999 SCT040 TX14/2118Z TN02/2109Z 
     BECMG 2105/2108 VRB03KT 
     PROB30 2105/2111 3000 BR NSC 
     BECMG 2111/2113 28005KT
       
TAF SARI 202300Z 2100/2124 05005KT CAVOK TX34/2118Z TN18/2110Z 
     BECMG 2112/2113 36010KT
       
TAF SAVC 202300Z 2100/2124 29015KT CAVOK TX16/2119Z TN08/2112Z 
     BECMG 2103/2106 29025G38KT
       
TAF SAME 202300Z 2100/2124 14005KT 9999 SCT045 TX20/2120Z TN10/2110Z
       
TAF SARF 202300Z 2100/2124 09010KT 4000 FU NSC TX38/2118Z TN22/2110Z 
     BECMG 2108/2110 02010KT CAVOK
       
TAF SASJ 202300Z 2100/2124 05010G20KT CAVOK TX25/2118Z TN16/2112Z 
     BECMG 2110/2112 16015G25KT 5000 DU BKN040
       
TAF SASA 202300Z 2100/2124 02005KT CAVOK TX22/2118Z TN14/2110Z 
     BECMG 2109/2111 09010KT 8000 BKN040
       
TAF SAZM 202300Z 2100/2124 21010KT 5000 RA SCT003 BKN035 TX15/2118Z TN07/2110Z 
     BECMG 2102/2105 9999 FEW006 SCT010 BKN045 
     BECMG 2105/2107 19010KT SCT040 
     BECMG 2111/2113 18005KT CAVOK
       
TAF SAEZ 202330Z 2100/2124 18015G25KT 7000 OVC010 TX13/2118Z TN11/2109Z 
     BECMG 2104/2107 16010KT 6000 RA BKN010 OVC025 
     PROB30 
     TEMPO 2106/2112 5000 -TSRA BKN020 OVC035 FEW050CB 
     BECMG 2114/2117 13010KT 8000 -RA BKN030 BKN050
       
TAF SARP 202300Z 2100/2124 07010KT CAVOK TX35/2118Z TN20/2110Z 
     BECMG 2112/2113 36010KT
       
TAF SAZN 202300Z 2100/2124 23010KT CAVOK TX21/2118Z TN05/2110Z 
     BECMG 2106/2108 27010KT 
     BECMG 2115/2117 34005KT
       
TAF SARE 202300Z 2100/2124 09005KT 5000 FU NSC TX27/2118Z TN20/2110Z 
     BECMG 2109/2110 20010KT 9999 BKN020
       
TAF SAWG 202300Z 2100/2124 34015KT 9999 VCSH SCT035 BKN090 
     BECMG 2103/2106 29020G30KT
       
TAF SAWE 202300Z 2100/2124 32015KT 8000 RA SCT014 OVC050 TX08/2119Z TN05/2112Z 
     BECMG 2104/2106 29020G30 9999 -RA SCT020 SCT070
       
TAF SAAR 202330Z 2100/2124 16020G30KT CAVOK TX25/2100Z TN10/2110Z 
     BECMG 2105/2107 18015KT 6000 RA BKN010 OVC040 
     TEMPO 2108/2112 5000 TSRA FEW035CB 
     BECMG 2116/2118 16010KT 7000 DZ OVC008 
       
TAF SAAR 202330Z 2100/2124 16020G30KT CAVOK TX25/2100Z TN10/2110Z 
     BECMG 2105/2107 18015KT 6000 RA BKN010 OVC040 
     TEMPO 2108/2112 5000 TSRA FEW035CB 
     BECMG 2116/2118 16010KT 7000 DZ OVC008 
       
TAF SABE 202330Z 2100/2124 18015G25KT 9999 OVC015 TX16/2100Z TN13/2110Z 
     BECMG 2104/2107 16010KT 6000 RA BKN010 OVC040 
     PROB30 
     TEMPO 2106/2112 5000 -TSRA FEW050CB 
     BECMG 2119/2122 8000 DZ BKN006 OVC008
       
TAF SACO 202300Z 2100/2124 18015G30KT 9999 BKN030 TX16/2118Z TN08/2110Z 
     BECMG 2102/2104 18015KT 5000 RA VCTS BKN020 FEW040CB 
     BECMG 2112/2115 18010KT 9999 BKN030
       
TAF SADF 202330Z 2100/2124 18015G25KT 9999 OVC015 TX16/2100Z TN13/2110Z 
     BECMG 2104/2107 16010KT 6000 RA BKN010 OVC040 
     PROB30 
     TEMPO 2106/2112 5000 -TSRA FEW050CB 
     BECMG 2119/2122 8000 DZ BKN006 OVC008 
       
TAF SAEZ 202330Z 2100/2124 18015G25KT 7000 OVC010 TX13/2118Z TN11/2109Z 
     BECMG 2104/2107 16010KT 6000 RA BKN010 OVC025 
     PROB30 
     TEMPO 2106/2112 5000 -TSRA BKN020 OVC035 FEW050CB 
     BECMG 2114/2117 13010KT 8000 -RA BKN030 BKN050
       
TAF SAME 202300Z 2100/2124 14005KT 9999 SCT045 TX20/2120Z TN10/2110Z
       
TAF SANR 202300Z 2100/2124 14015G25KT 7000 DU BKN040 TX23/2118Z TN14/2110Z 
     BECMG 2106/2109 18015KT 9999 BKN030
       
TAF SANT 202300Z 2100/2124 18015KT 5000 FU DU BKN030 TX21/2118Z TN15/2110Z
       
TAF SARE 202300Z 2100/2124 09005KT 5000 FU NSC TX27/2118Z TN20/2110Z 
     BECMG 2109/2110 20010KT 9999 BKN020
       
TAF SARF 202300Z 2100/2124 09010KT 4000 FU NSC TX38/2118Z TN22/2110Z 
     BECMG 2108/2110 02010KT CAVOK
       
TAF SARI 202300Z 2100/2124 05005KT CAVOK TX34/2118Z TN18/2110Z 
     BECMG 2112/2113 36010KT
       
TAF SARP 202300Z 2100/2124 07010KT CAVOK TX35/2118Z TN20/2110Z 
     BECMG 2112/2113 36010KT
       
TAF SASA 202300Z 2100/2124 02005KT CAVOK TX22/2118Z TN14/2110Z 
     BECMG 2109/2111 09010KT 8000 BKN040
       
TAF SASJ 202300Z 2100/2124 05010G20KT CAVOK TX25/2118Z TN16/2112Z 
     BECMG 2110/2112 16015G25KT 5000 DU BKN040
       
TAF SAVC 202300Z 2100/2124 29015KT CAVOK TX16/2119Z TN08/2112Z 
     BECMG 2103/2106 29025G38KT
       
TAF SAWE 202300Z 2100/2124 32015KT 8000 RA SCT014 OVC050 TX08/2119Z TN05/2112Z 
     BECMG 2104/2106 29020G30 9999 -RA SCT020 SCT070
       
TAF SAWG 202300Z 2100/2124 34015KT 9999 VCSH SCT035 BKN090 
     BECMG 2103/2106 29020G30KT
       
TAF SAWH 202300Z 2100/2124 36015KT 9999 VCSH SCT030 OVC100 TX06/2119Z TN02/2112Z 
     BECMG 2102/2105 25020G30KT -RA BKN025 OVC050 
     BECMG 2106/2108 30015KT NSW BKN030
       
TAF SAZM 202300Z 2100/2124 21010KT 5000 RA SCT003 BKN035 TX15/2118Z TN07/2110Z 
     BECMG 2102/2105 9999 FEW006 SCT010 BKN045 
     BECMG 2105/2107 19010KT SCT040 
     BECMG 2111/2113 18005KT CAVOK
       
TAF SAZN 202300Z 2100/2124 23010KT CAVOK TX21/2118Z TN05/2110Z 
     BECMG 2106/2108 27010KT 
     BECMG 2115/2117 34005KT
       
TAF SAZS 202300Z 2100/2124 30015KT 9999 SCT040 TX14/2118Z TN02/2109Z 
     BECMG 2105/2108 VRB03KT 
     PROB30 2105/2111 3000 BR NSC 
     BECMG 2111/2113 28005KT
       
TAF SASA 202300Z 2100/2124 02005KT CAVOK TX22/2118Z TN14/2110Z 
     BECMG 2109/2111 09010KT 8000 BKN040
       
TAF SAZS 202300Z 2100/2124 30015KT 9999 SCT040 TX14/2118Z TN02/2109Z 
     BECMG 2105/2108 VRB03KT 
     PROB30 2105/2111 3000 BR NSC 
     BECMG 2111/2113 28005KT
       
TAF SADF 202330Z 2100/2124 18015G25KT 9999 OVC015 TX16/2100Z TN13/2110Z 
     BECMG 2104/2107 16010KT 6000 RA BKN010 OVC040 
     PROB30 
     TEMPO 2106/2112 5000 -TSRA FEW050CB 
     BECMG 2119/2122 8000 DZ BKN006 OVC008 
       
TAF SAAR 202330Z 2100/2124 16020G30KT CAVOK TX25/2100Z TN10/2110Z 
     BECMG 2105/2107 18015KT 6000 RA BKN010 OVC040 
     TEMPO 2108/2112 5000 TSRA FEW035CB 
     BECMG 2116/2118 16010KT 7000 DZ OVC008 
       
TAF SABE 202330Z 2100/2124 18015G25KT 9999 OVC015 TX16/2100Z TN13/2110Z 
     BECMG 2104/2107 16010KT 6000 RA BKN010 OVC040 
     PROB30 
     TEMPO 2106/2112 5000 -TSRA FEW050CB 
     BECMG 2119/2122 8000 DZ BKN006 OVC008
       
TAF SACO 202300Z 2100/2124 18015G30KT 9999 BKN030 TX16/2118Z TN08/2110Z 
     BECMG 2102/2104 18015KT 5000 RA VCTS BKN020 FEW040CB 
     BECMG 2112/2115 18010KT 9999 BKN030
       
TAF SADF 202330Z 2100/2124 18015G25KT 9999 OVC015 TX16/2100Z TN13/2110Z 
     BECMG 2104/2107 16010KT 6000 RA BKN010 OVC040 
     PROB30 
     TEMPO 2106/2112 5000 -TSRA FEW050CB 
     BECMG 2119/2122 8000 DZ BKN006 OVC008 
       
TAF SAEZ 202330Z 2100/2124 18015G25KT 7000 OVC010 TX13/2118Z TN11/2109Z 
     BECMG 2104/2107 16010KT 6000 RA BKN010 OVC025 
     PROB30 
     TEMPO 2106/2112 5000 -TSRA BKN020 OVC035 FEW050CB 
     BECMG 2114/2117 13010KT 8000 -RA BKN030 BKN050
       
TAF SAME 202300Z 2100/2124 14005KT 9999 SCT045 TX20/2120Z TN10/2110Z
       
TAF SANR 202300Z 2100/2124 14015G25KT 7000 DU BKN040 TX23/2118Z TN14/2110Z 
     BECMG 2106/2109 18015KT 9999 BKN030
       
TAF SANT 202300Z 2100/2124 18015KT 5000 FU DU BKN030 TX21/2118Z TN15/2110Z
       
TAF SARE 202300Z 2100/2124 09005KT 5000 FU NSC TX27/2118Z TN20/2110Z 
     BECMG 2109/2110 20010KT 9999 BKN020
       
TAF SARF 202300Z 2100/2124 09010KT 4000 FU NSC TX38/2118Z TN22/2110Z 
     BECMG 2108/2110 02010KT CAVOK
       
TAF SARI 202300Z 2100/2124 05005KT CAVOK TX34/2118Z TN18/2110Z 
     BECMG 2112/2113 36010KT
       
TAF SARP 202300Z 2100/2124 07010KT CAVOK TX35/2118Z TN20/2110Z 
     BECMG 2112/2113 36010KT
       
TAF SASA 202300Z 2100/2124 02005KT CAVOK TX22/2118Z TN14/2110Z 
     BECMG 2109/2111 09010KT 8000 BKN040
       
TAF SASJ 202300Z 2100/2124 05010G20KT CAVOK TX25/2118Z TN16/2112Z 
     BECMG 2110/2112 16015G25KT 5000 DU BKN040
       
TAF SAVC 202300Z 2100/2124 29015KT CAVOK TX16/2119Z TN08/2112Z 
     BECMG 2103/2106 29025G38KT
       
TAF SAWE 202300Z 2100/2124 32015KT 8000 RA SCT014 OVC050 TX08/2119Z TN05/2112Z 
     BECMG 2104/2106 29020G30 9999 -RA SCT020 SCT070
       
TAF SAWG 202300Z 2100/2124 34015KT 9999 VCSH SCT035 BKN090 
     BECMG 2103/2106 29020G30KT
       
TAF SAWH 202300Z 2100/2124 36015KT 9999 VCSH SCT030 OVC100 TX06/2119Z TN02/2112Z 
     BECMG 2102/2105 25020G30KT -RA BKN025 OVC050 
     BECMG 2106/2108 30015KT NSW BKN030
       
TAF SAZM 202300Z 2100/2124 21010KT 5000 RA SCT003 BKN035 TX15/2118Z TN07/2110Z 
     BECMG 2102/2105 9999 FEW006 SCT010 BKN045 
     BECMG 2105/2107 19010KT SCT040 
     BECMG 2111/2113 18005KT CAVOK
       
TAF SAZN 202300Z 2100/2124 23010KT CAVOK TX21/2118Z TN05/2110Z 
     BECMG 2106/2108 27010KT 
     BECMG 2115/2117 34005KT
       
TAF SAZS 202300Z 2100/2124 30015KT 9999 SCT040 TX14/2118Z TN02/2109Z 
     BECMG 2105/2108 VRB03KT 
     PROB30 2105/2111 3000 BR NSC 
     BECMG 2111/2113 28005KT
       
TAF SANT 202300Z 2100/2124 18015KT 5000 FU DU BKN030 TX21/2118Z TN15/2110Z
       
TAF SAWH 202300Z 2100/2124 36015KT 9999 VCSH SCT030 OVC100 TX06/2119Z TN02/2112Z 
     BECMG 2102/2105 25020G30KT -RA BKN025 OVC050 
     BECMG 2106/2108 30015KT NSW BKN030